sensor_id;sensor_type;location;lat;lon;timestamp;P1;durP1;ratioP1;P2;durP2;ratioP2
70433;SDS011;57876;47.792;12.960;2023-10-19T00:01:53;8.48;;;3.40;;
70433;SDS011;57876;47.792;12.960;2023-10-19T00:04:17;7.13;;;3.60;;
70433;SDS011;57876;47.792;12.960;2023-10-19T00:06:42;7.33;;;3.50;;
70433;SDS011;57876;47.792;12.960;2023-10-19T00:09:08;6.82;;;3.15;;
70433;SDS011;57876;47.792;12.960;2023-10-19T00:11:35;7.28;;;3.38;;
70433;SDS011;57876;47.792;12.960;2023-10-19T00:13:59;8.23;;;3.30;;
70433;SDS011;57876;47.792;12.960;2023-10-19T00:16:25;8.45;;;3.63;;
70433;SDS011;57876;47.792;12.960;2023-10-19T00:18:59;7.00;;;3.30;;
70433;SDS011;57876;47.792;12.960;2023-10-19T00:21:24;7.72;;;3.45;;
70433;SDS011;57876;47.792;12.960;2023-10-19T00:23:53;6.60;;;3.05;;
70433;SDS011;57876;47.792;12.960;2023-10-19T00:26:21;6.77;;;3.40;;
70433;SDS011;57876;47.792;12.960;2023-10-19T00:28:49;7.10;;;3.10;;
70433;SDS011;57876;47.792;12.960;2023-10-19T00:31:17;6.90;;;3.40;;
70433;SDS011;57876;47.792;12.960;2023-10-19T00:33:44;7.28;;;3.42;;
70433;SDS011;57876;47.792;12.960;2023-10-19T00:36:09;7.15;;;3.20;;
70433;SDS011;57876;47.792;12.960;2023-10-19T00:38:37;7.87;;;3.43;;
70433;SDS011;57876;47.792;12.960;2023-10-19T00:41:20;7.95;;;3.22;;
70433;SDS011;57876;47.792;12.960;2023-10-19T00:43:48;7.00;;;3.05;;
70433;SDS011;57876;47.792;12.960;2023-10-19T00:46:14;6.90;;;3.00;;
70433;SDS011;57876;47.792;12.960;2023-10-19T00:48:46;7.60;;;3.30;;
70433;SDS011;57876;47.792;12.960;2023-10-19T00:51:18;8.43;;;3.23;;
70433;SDS011;57876;47.792;12.960;2023-10-19T00:53:54;7.85;;;2.90;;
70433;SDS011;57876;47.792;12.960;2023-10-19T00:56:21;6.85;;;3.25;;
70433;SDS011;57876;47.792;12.960;2023-10-19T00:58:47;6.82;;;2.90;;
70433;SDS011;57876;47.792;12.960;2023-10-19T01:01:17;8.20;;;3.45;;
70433;SDS011;57876;47.792;12.960;2023-10-19T01:03:48;8.43;;;3.33;;
70433;SDS011;57876;47.792;12.960;2023-10-19T01:06:20;7.72;;;3.35;;
70433;SDS011;57876;47.792;12.960;2023-10-19T01:08:45;7.53;;;3.10;;
70433;SDS011;57876;47.792;12.960;2023-10-19T01:11:10;7.10;;;3.30;;
70433;SDS011;57876;47.792;12.960;2023-10-19T01:13:35;6.63;;;3.05;;
70433;SDS011;57876;47.792;12.960;2023-10-19T01:16:00;7.20;;;3.20;;
70433;SDS011;57876;47.792;12.960;2023-10-19T01:18:24;7.25;;;3.17;;
70433;SDS011;57876;47.792;12.960;2023-10-19T01:20:56;6.87;;;3.03;;
70433;SDS011;57876;47.792;12.960;2023-10-19T01:23:20;6.57;;;2.87;;
70433;SDS011;57876;47.792;12.960;2023-10-19T01:28:19;6.43;;;3.00;;
70433;SDS011;57876;47.792;12.960;2023-10-19T01:31:03;6.85;;;2.90;;
70433;SDS011;57876;47.792;12.960;2023-10-19T01:33:30;6.70;;;3.00;;
70433;SDS011;57876;47.792;12.960;2023-10-19T01:35:55;7.40;;;2.90;;
70433;SDS011;57876;47.792;12.960;2023-10-19T01:38:38;6.50;;;2.70;;
70433;SDS011;57876;47.792;12.960;2023-10-19T01:41:03;8.30;;;2.72;;
70433;SDS011;57876;47.792;12.960;2023-10-19T01:43:48;6.85;;;3.08;;
70433;SDS011;57876;47.792;12.960;2023-10-19T01:46:17;6.90;;;3.10;;
70433;SDS011;57876;47.792;12.960;2023-10-19T01:48:50;7.28;;;3.20;;
70433;SDS011;57876;47.792;12.960;2023-10-19T01:51:19;7.25;;;3.10;;
70433;SDS011;57876;47.792;12.960;2023-10-19T01:53:44;7.13;;;3.13;;
70433;SDS011;57876;47.792;12.960;2023-10-19T01:56:09;6.40;;;2.90;;
70433;SDS011;57876;47.792;12.960;2023-10-19T01:58:38;6.75;;;2.92;;
70433;SDS011;57876;47.792;12.960;2023-10-19T02:01:04;6.93;;;2.92;;
70433;SDS011;57876;47.792;12.960;2023-10-19T02:03:37;7.10;;;3.10;;
70433;SDS011;57876;47.792;12.960;2023-10-19T02:06:05;6.72;;;2.65;;
70433;SDS011;57876;47.792;12.960;2023-10-19T02:08:35;6.78;;;3.00;;
70433;SDS011;57876;47.792;12.960;2023-10-19T02:11:02;6.28;;;2.83;;
70433;SDS011;57876;47.792;12.960;2023-10-19T02:13:27;6.75;;;2.67;;
70433;SDS011;57876;47.792;12.960;2023-10-19T02:15:52;7.23;;;3.00;;
70433;SDS011;57876;47.792;12.960;2023-10-19T02:18:16;6.20;;;2.60;;
70433;SDS011;57876;47.792;12.960;2023-10-19T02:20:41;6.60;;;2.75;;
70433;SDS011;57876;47.792;12.960;2023-10-19T02:23:05;6.60;;;2.77;;
70433;SDS011;57876;47.792;12.960;2023-10-19T02:25:32;7.15;;;2.97;;
70433;SDS011;57876;47.792;12.960;2023-10-19T02:28:00;6.25;;;2.65;;
70433;SDS011;57876;47.792;12.960;2023-10-19T02:30:24;7.80;;;2.87;;
70433;SDS011;57876;47.792;12.960;2023-10-19T02:32:49;7.07;;;2.97;;
70433;SDS011;57876;47.792;12.960;2023-10-19T02:35:14;7.55;;;3.20;;
70433;SDS011;57876;47.792;12.960;2023-10-19T02:37:39;6.40;;;2.73;;
70433;SDS011;57876;47.792;12.960;2023-10-19T02:40:03;6.67;;;3.00;;
70433;SDS011;57876;47.792;12.960;2023-10-19T02:42:36;6.80;;;3.03;;
70433;SDS011;57876;47.792;12.960;2023-10-19T02:45:00;7.03;;;3.40;;
70433;SDS011;57876;47.792;12.960;2023-10-19T02:47:25;6.63;;;2.90;;
70433;SDS011;57876;47.792;12.960;2023-10-19T02:49:52;6.40;;;2.70;;
70433;SDS011;57876;47.792;12.960;2023-10-19T02:52:19;6.70;;;2.90;;
70433;SDS011;57876;47.792;12.960;2023-10-19T02:54:44;6.22;;;2.78;;
70433;SDS011;57876;47.792;12.960;2023-10-19T02:57:09;6.20;;;2.77;;
70433;SDS011;57876;47.792;12.960;2023-10-19T02:59:36;6.68;;;2.80;;
70433;SDS011;57876;47.792;12.960;2023-10-19T03:02:00;6.57;;;2.80;;
70433;SDS011;57876;47.792;12.960;2023-10-19T03:04:31;7.03;;;3.20;;
70433;SDS011;57876;47.792;12.960;2023-10-19T03:06:59;6.40;;;2.78;;
70433;SDS011;57876;47.792;12.960;2023-10-19T03:09:23;6.90;;;3.07;;
70433;SDS011;57876;47.792;12.960;2023-10-19T03:11:50;7.13;;;2.90;;
70433;SDS011;57876;47.792;12.960;2023-10-19T03:14:19;6.80;;;2.67;;
70433;SDS011;57876;47.792;12.960;2023-10-19T03:16:44;6.50;;;2.73;;
70433;SDS011;57876;47.792;12.960;2023-10-19T03:19:09;6.55;;;2.80;;
70433;SDS011;57876;47.792;12.960;2023-10-19T03:21:34;7.00;;;2.80;;
70433;SDS011;57876;47.792;12.960;2023-10-19T03:24:12;7.35;;;2.90;;
70433;SDS011;57876;47.792;12.960;2023-10-19T03:26:39;6.38;;;2.70;;
70433;SDS011;57876;47.792;12.960;2023-10-19T03:29:12;7.03;;;3.30;;
70433;SDS011;57876;47.792;12.960;2023-10-19T03:31:38;6.47;;;2.87;;
70433;SDS011;57876;47.792;12.960;2023-10-19T03:34:07;6.85;;;3.05;;
70433;SDS011;57876;47.792;12.960;2023-10-19T03:36:31;7.30;;;3.40;;
70433;SDS011;57876;47.792;12.960;2023-10-19T03:38:59;6.15;;;2.70;;
70433;SDS011;57876;47.792;12.960;2023-10-19T03:41:35;7.78;;;3.13;;
70433;SDS011;57876;47.792;12.960;2023-10-19T03:44:00;7.40;;;3.03;;
70433;SDS011;57876;47.792;12.960;2023-10-19T03:46:25;6.53;;;2.88;;
70433;SDS011;57876;47.792;12.960;2023-10-19T03:48:55;7.00;;;3.20;;
70433;SDS011;57876;47.792;12.960;2023-10-19T03:51:23;6.53;;;2.80;;
70433;SDS011;57876;47.792;12.960;2023-10-19T03:53:50;6.65;;;2.80;;
70433;SDS011;57876;47.792;12.960;2023-10-19T03:56:18;6.95;;;2.90;;
70433;SDS011;57876;47.792;12.960;2023-10-19T03:58:43;7.80;;;3.20;;
70433;SDS011;57876;47.792;12.960;2023-10-19T04:01:11;7.00;;;3.10;;
70433;SDS011;57876;47.792;12.960;2023-10-19T04:03:35;7.37;;;3.27;;
70433;SDS011;57876;47.792;12.960;2023-10-19T04:06:00;8.10;;;3.25;;
70433;SDS011;57876;47.792;12.960;2023-10-19T04:08:27;6.78;;;2.72;;
70433;SDS011;57876;47.792;12.960;2023-10-19T04:10:55;6.90;;;3.03;;
70433;SDS011;57876;47.792;12.960;2023-10-19T04:13:35;8.10;;;3.08;;
70433;SDS011;57876;47.792;12.960;2023-10-19T04:16:00;7.03;;;2.97;;
70433;SDS011;57876;47.792;12.960;2023-10-19T04:18:24;7.00;;;2.90;;
70433;SDS011;57876;47.792;12.960;2023-10-19T04:20:49;6.77;;;2.87;;
70433;SDS011;57876;47.792;12.960;2023-10-19T04:23:14;6.70;;;3.00;;
70433;SDS011;57876;47.792;12.960;2023-10-19T04:25:39;6.43;;;3.07;;
70433;SDS011;57876;47.792;12.960;2023-10-19T04:28:03;6.97;;;2.90;;
70433;SDS011;57876;47.792;12.960;2023-10-19T04:30:29;7.10;;;3.43;;
70433;SDS011;57876;47.792;12.960;2023-10-19T04:32:57;6.85;;;3.10;;
70433;SDS011;57876;47.792;12.960;2023-10-19T04:35:21;6.83;;;3.10;;
70433;SDS011;57876;47.792;12.960;2023-10-19T04:37:45;6.65;;;3.00;;
70433;SDS011;57876;47.792;12.960;2023-10-19T04:40:11;7.23;;;3.00;;
70433;SDS011;57876;47.792;12.960;2023-10-19T04:42:35;6.95;;;3.08;;
70433;SDS011;57876;47.792;12.960;2023-10-19T04:45:01;7.28;;;3.25;;
70433;SDS011;57876;47.792;12.960;2023-10-19T04:47:26;6.40;;;3.10;;
70433;SDS011;57876;47.792;12.960;2023-10-19T04:49:50;7.18;;;3.22;;
70433;SDS011;57876;47.792;12.960;2023-10-19T04:52:15;7.47;;;2.90;;
70433;SDS011;57876;47.792;12.960;2023-10-19T04:54:39;6.73;;;2.77;;
70433;SDS011;57876;47.792;12.960;2023-10-19T04:57:03;7.90;;;3.20;;
70433;SDS011;57876;47.792;12.960;2023-10-19T04:59:28;7.45;;;3.33;;
70433;SDS011;57876;47.792;12.960;2023-10-19T05:01:57;6.47;;;2.92;;
70433;SDS011;57876;47.792;12.960;2023-10-19T05:04:21;7.13;;;3.00;;
70433;SDS011;57876;47.792;12.960;2023-10-19T05:06:46;7.27;;;3.20;;
70433;SDS011;57876;47.792;12.960;2023-10-19T05:09:10;6.43;;;3.07;;
70433;SDS011;57876;47.792;12.960;2023-10-19T05:11:36;7.60;;;3.30;;
70433;SDS011;57876;47.792;12.960;2023-10-19T05:14:00;7.15;;;3.20;;
70433;SDS011;57876;47.792;12.960;2023-10-19T05:16:24;6.63;;;3.07;;
70433;SDS011;57876;47.792;12.960;2023-10-19T05:18:50;6.40;;;2.70;;
70433;SDS011;57876;47.792;12.960;2023-10-19T05:21:14;6.80;;;3.10;;
70433;SDS011;57876;47.792;12.960;2023-10-19T05:23:39;7.40;;;3.20;;
70433;SDS011;57876;47.792;12.960;2023-10-19T05:26:04;6.80;;;3.07;;
70433;SDS011;57876;47.792;12.960;2023-10-19T05:28:30;7.35;;;3.25;;
70433;SDS011;57876;47.792;12.960;2023-10-19T05:30:55;7.03;;;3.13;;
70433;SDS011;57876;47.792;12.960;2023-10-19T05:33:19;7.45;;;3.53;;
70433;SDS011;57876;47.792;12.960;2023-10-19T05:35:44;7.35;;;3.47;;
70433;SDS011;57876;47.792;12.960;2023-10-19T05:38:09;8.83;;;3.80;;
70433;SDS011;57876;47.792;12.960;2023-10-19T05:40:33;7.80;;;3.70;;
70433;SDS011;57876;47.792;12.960;2023-10-19T05:42:59;8.65;;;4.18;;
70433;SDS011;57876;47.792;12.960;2023-10-19T05:45:25;9.02;;;4.15;;
70433;SDS011;57876;47.792;12.960;2023-10-19T05:47:50;8.87;;;4.07;;
70433;SDS011;57876;47.792;12.960;2023-10-19T05:50:15;8.85;;;4.18;;
70433;SDS011;57876;47.792;12.960;2023-10-19T05:52:40;8.93;;;4.30;;
70433;SDS011;57876;47.792;12.960;2023-10-19T05:55:08;8.90;;;4.38;;
70433;SDS011;57876;47.792;12.960;2023-10-19T05:57:35;10.18;;;4.13;;
70433;SDS011;57876;47.792;12.960;2023-10-19T06:00:04;9.70;;;4.13;;
70433;SDS011;57876;47.792;12.960;2023-10-19T06:02:29;9.02;;;4.20;;
70433;SDS011;57876;47.792;12.960;2023-10-19T06:04:53;8.97;;;4.23;;
70433;SDS011;57876;47.792;12.960;2023-10-19T06:07:21;9.18;;;4.47;;
70433;SDS011;57876;47.792;12.960;2023-10-19T06:09:45;9.73;;;4.33;;
70433;SDS011;57876;47.792;12.960;2023-10-19T06:12:09;9.98;;;4.20;;
70433;SDS011;57876;47.792;12.960;2023-10-19T06:14:34;9.47;;;4.50;;
70433;SDS011;57876;47.792;12.960;2023-10-19T06:16:58;8.90;;;4.20;;
70433;SDS011;57876;47.792;12.960;2023-10-19T06:19:22;9.83;;;4.53;;
70433;SDS011;57876;47.792;12.960;2023-10-19T06:21:47;9.37;;;4.27;;
70433;SDS011;57876;47.792;12.960;2023-10-19T06:24:11;8.25;;;3.92;;
70433;SDS011;57876;47.792;12.960;2023-10-19T06:26:38;9.37;;;4.03;;
70433;SDS011;57876;47.792;12.960;2023-10-19T06:29:03;8.05;;;3.80;;
70433;SDS011;57876;47.792;12.960;2023-10-19T06:31:27;8.77;;;4.40;;
70433;SDS011;57876;47.792;12.960;2023-10-19T06:33:52;8.50;;;4.23;;
70433;SDS011;57876;47.792;12.960;2023-10-19T06:36:16;9.80;;;4.50;;
70433;SDS011;57876;47.792;12.960;2023-10-19T06:38:41;9.25;;;4.20;;
70433;SDS011;57876;47.792;12.960;2023-10-19T06:41:12;9.50;;;4.37;;
70433;SDS011;57876;47.792;12.960;2023-10-19T06:43:41;9.20;;;3.90;;
70433;SDS011;57876;47.792;12.960;2023-10-19T06:46:05;9.00;;;4.27;;
70433;SDS011;57876;47.792;12.960;2023-10-19T06:48:30;8.55;;;3.85;;
70433;SDS011;57876;47.792;12.960;2023-10-19T06:50:56;8.63;;;3.90;;
70433;SDS011;57876;47.792;12.960;2023-10-19T06:53:20;8.50;;;4.03;;
70433;SDS011;57876;47.792;12.960;2023-10-19T06:55:45;8.32;;;3.72;;
70433;SDS011;57876;47.792;12.960;2023-10-19T06:58:10;8.60;;;3.90;;
70433;SDS011;57876;47.792;12.960;2023-10-19T07:00:36;8.32;;;3.78;;
70433;SDS011;57876;47.792;12.960;2023-10-19T07:03:06;8.48;;;3.90;;
70433;SDS011;57876;47.792;12.960;2023-10-19T07:05:30;8.13;;;3.90;;
70433;SDS011;57876;47.792;12.960;2023-10-19T07:07:55;7.47;;;3.43;;
70433;SDS011;57876;47.792;12.960;2023-10-19T07:10:20;7.70;;;3.47;;
70433;SDS011;57876;47.792;12.960;2023-10-19T07:12:46;8.47;;;3.80;;
70433;SDS011;57876;47.792;12.960;2023-10-19T07:15:12;7.90;;;3.53;;
70433;SDS011;57876;47.792;12.960;2023-10-19T07:17:43;7.93;;;3.35;;
70433;SDS011;57876;47.792;12.960;2023-10-19T07:20:08;8.70;;;3.47;;
70433;SDS011;57876;47.792;12.960;2023-10-19T07:22:48;8.30;;;3.60;;
70433;SDS011;57876;47.792;12.960;2023-10-19T07:25:13;7.68;;;3.33;;
70433;SDS011;57876;47.792;12.960;2023-10-19T07:27:37;8.37;;;3.67;;
70433;SDS011;57876;47.792;12.960;2023-10-19T07:30:02;7.27;;;3.47;;
70433;SDS011;57876;47.792;12.960;2023-10-19T07:32:30;8.18;;;3.65;;
70433;SDS011;57876;47.792;12.960;2023-10-19T07:34:54;7.10;;;3.10;;
70433;SDS011;57876;47.792;12.960;2023-10-19T07:37:21;7.55;;;3.40;;
70433;SDS011;57876;47.792;12.960;2023-10-19T07:39:47;8.10;;;3.40;;
70433;SDS011;57876;47.792;12.960;2023-10-19T07:42:12;8.80;;;3.58;;
70433;SDS011;57876;47.792;12.960;2023-10-19T07:44:36;7.20;;;3.03;;
70433;SDS011;57876;47.792;12.960;2023-10-19T07:47:01;7.60;;;3.20;;
70433;SDS011;57876;47.792;12.960;2023-10-19T07:49:25;8.10;;;3.33;;
70433;SDS011;57876;47.792;12.960;2023-10-19T07:51:50;7.47;;;3.37;;
70433;SDS011;57876;47.792;12.960;2023-10-19T07:54:15;7.68;;;3.38;;
70433;SDS011;57876;47.792;12.960;2023-10-19T07:56:39;7.73;;;3.60;;
70433;SDS011;57876;47.792;12.960;2023-10-19T07:59:04;8.00;;;3.57;;
70433;SDS011;57876;47.792;12.960;2023-10-19T08:01:30;7.53;;;3.45;;
70433;SDS011;57876;47.792;12.960;2023-10-19T08:03:55;7.28;;;3.10;;
70433;SDS011;57876;47.792;12.960;2023-10-19T08:06:20;6.60;;;3.17;;
70433;SDS011;57876;47.792;12.960;2023-10-19T08:08:44;6.90;;;3.20;;
70433;SDS011;57876;47.792;12.960;2023-10-19T08:11:11;7.78;;;3.47;;
70433;SDS011;57876;47.792;12.960;2023-10-19T08:13:36;7.40;;;3.30;;
70433;SDS011;57876;47.792;12.960;2023-10-19T08:16:00;7.17;;;3.40;;
70433;SDS011;57876;47.792;12.960;2023-10-19T08:18:25;8.53;;;3.70;;
70433;SDS011;57876;47.792;12.960;2023-10-19T08:20:50;7.40;;;3.33;;
70433;SDS011;57876;47.792;12.960;2023-10-19T08:23:16;7.75;;;3.60;;
70433;SDS011;57876;47.792;12.960;2023-10-19T08:25:47;7.53;;;3.28;;
70433;SDS011;57876;47.792;12.960;2023-10-19T08:28:13;7.82;;;3.75;;
70433;SDS011;57876;47.792;12.960;2023-10-19T08:30:40;7.40;;;3.53;;
70433;SDS011;57876;47.792;12.960;2023-10-19T08:33:05;7.03;;;3.00;;
70433;SDS011;57876;47.792;12.960;2023-10-19T08:35:31;6.88;;;3.00;;
70433;SDS011;57876;47.792;12.960;2023-10-19T08:37:56;8.23;;;3.42;;
70433;SDS011;57876;47.792;12.960;2023-10-19T08:40:25;7.68;;;3.72;;
70433;SDS011;57876;47.792;12.960;2023-10-19T08:42:51;7.93;;;3.50;;
70433;SDS011;57876;47.792;12.960;2023-10-19T08:45:16;7.75;;;3.40;;
70433;SDS011;57876;47.792;12.960;2023-10-19T08:48:00;7.00;;;3.40;;
70433;SDS011;57876;47.792;12.960;2023-10-19T08:50:25;7.60;;;3.37;;
70433;SDS011;57876;47.792;12.960;2023-10-19T08:52:53;6.95;;;3.60;;
70433;SDS011;57876;47.792;12.960;2023-10-19T08:55:19;7.60;;;3.40;;
70433;SDS011;57876;47.792;12.960;2023-10-19T08:57:44;7.50;;;3.50;;
70433;SDS011;57876;47.792;12.960;2023-10-19T09:00:09;7.65;;;3.40;;
70433;SDS011;57876;47.792;12.960;2023-10-19T09:02:34;6.70;;;3.13;;
70433;SDS011;57876;47.792;12.960;2023-10-19T09:04:59;7.50;;;3.70;;
70433;SDS011;57876;47.792;12.960;2023-10-19T09:07:24;7.20;;;3.30;;
70433;SDS011;57876;47.792;12.960;2023-10-19T09:09:48;8.32;;;3.33;;
70433;SDS011;57876;47.792;12.960;2023-10-19T09:12:13;7.37;;;3.50;;
70433;SDS011;57876;47.792;12.960;2023-10-19T09:14:37;7.60;;;3.70;;
70433;SDS011;57876;47.792;12.960;2023-10-19T09:17:05;8.13;;;3.70;;
70433;SDS011;57876;47.792;12.960;2023-10-19T09:19:36;6.97;;;3.17;;
70433;SDS011;57876;47.792;12.960;2023-10-19T09:22:02;7.43;;;3.42;;
70433;SDS011;57876;47.792;12.960;2023-10-19T09:24:43;6.97;;;3.35;;
70433;SDS011;57876;47.792;12.960;2023-10-19T09:27:09;7.57;;;3.40;;
70433;SDS011;57876;47.792;12.960;2023-10-19T09:29:33;7.13;;;3.57;;
70433;SDS011;57876;47.792;12.960;2023-10-19T09:31:58;7.50;;;3.50;;
70433;SDS011;57876;47.792;12.960;2023-10-19T09:34:27;8.83;;;3.43;;
70433;SDS011;57876;47.792;12.960;2023-10-19T09:36:56;6.97;;;3.03;;
70433;SDS011;57876;47.792;12.960;2023-10-19T09:39:20;7.07;;;3.43;;
70433;SDS011;57876;47.792;12.960;2023-10-19T09:41:44;6.97;;;3.30;;
70433;SDS011;57876;47.792;12.960;2023-10-19T09:44:11;7.47;;;3.45;;
70433;SDS011;57876;47.792;12.960;2023-10-19T09:46:37;7.00;;;3.17;;
70433;SDS011;57876;47.792;12.960;2023-10-19T09:49:04;7.82;;;3.50;;
70433;SDS011;57876;47.792;12.960;2023-10-19T09:51:30;7.00;;;3.10;;
70433;SDS011;57876;47.792;12.960;2023-10-19T09:54:07;7.18;;;3.20;;
70433;SDS011;57876;47.792;12.960;2023-10-19T09:56:42;6.65;;;3.25;;
70433;SDS011;57876;47.792;12.960;2023-10-19T09:59:13;7.10;;;3.37;;
70433;SDS011;57876;47.792;12.960;2023-10-19T10:04:43;7.68;;;3.30;;
70433;SDS011;57876;47.792;12.960;2023-10-19T10:07:10;6.63;;;3.30;;
70433;SDS011;57876;47.792;12.960;2023-10-19T10:09:35;7.70;;;3.07;;
70433;SDS011;57876;47.792;12.960;2023-10-19T10:12:20;6.93;;;3.13;;
70433;SDS011;57876;47.792;12.960;2023-10-19T10:14:57;6.88;;;3.17;;
70433;SDS011;57876;47.792;12.960;2023-10-19T10:17:22;6.20;;;2.87;;
70433;SDS011;57876;47.792;12.960;2023-10-19T10:19:48;6.53;;;3.10;;
70433;SDS011;57876;47.792;12.960;2023-10-19T10:22:13;8.38;;;3.63;;
70433;SDS011;57876;47.792;12.960;2023-10-19T10:24:43;7.45;;;3.20;;
70433;SDS011;57876;47.792;12.960;2023-10-19T10:27:10;7.75;;;3.30;;
70433;SDS011;57876;47.792;12.960;2023-10-19T10:29:37;6.67;;;3.10;;
70433;SDS011;57876;47.792;12.960;2023-10-19T10:32:42;7.80;;;3.33;;
70433;SDS011;57876;47.792;12.960;2023-10-19T10:35:09;7.68;;;3.15;;
70433;SDS011;57876;47.792;12.960;2023-10-19T10:37:36;6.50;;;3.13;;
70433;SDS011;57876;47.792;12.960;2023-10-19T10:40:01;7.30;;;3.13;;
70433;SDS011;57876;47.792;12.960;2023-10-19T10:42:25;7.00;;;3.07;;
70433;SDS011;57876;47.792;12.960;2023-10-19T10:44:50;7.40;;;3.13;;
70433;SDS011;57876;47.792;12.960;2023-10-19T10:47:20;7.03;;;3.13;;
70433;SDS011;57876;47.792;12.960;2023-10-19T10:50:07;7.40;;;2.95;;
70433;SDS011;57876;47.792;12.960;2023-10-19T10:52:31;6.50;;;3.00;;
70433;SDS011;57876;47.792;12.960;2023-10-19T10:55:14;6.77;;;3.13;;
70433;SDS011;57876;47.792;12.960;2023-10-19T10:57:40;7.15;;;3.20;;
70433;SDS011;57876;47.792;12.960;2023-10-19T11:00:06;6.70;;;2.90;;
70433;SDS011;57876;47.792;12.960;2023-10-19T11:02:36;7.40;;;2.72;;
70433;SDS011;57876;47.792;12.960;2023-10-19T11:05:06;6.68;;;3.15;;
70433;SDS011;57876;47.792;12.960;2023-10-19T11:07:35;6.83;;;3.00;;
70433;SDS011;57876;47.792;12.960;2023-10-19T11:10:00;7.47;;;3.08;;
70433;SDS011;57876;47.792;12.960;2023-10-19T11:12:26;7.13;;;2.97;;
70433;SDS011;57876;47.792;12.960;2023-10-19T11:14:57;6.87;;;2.90;;
70433;SDS011;57876;47.792;12.960;2023-10-19T11:17:23;6.50;;;3.00;;
70433;SDS011;57876;47.792;12.960;2023-10-19T11:19:52;6.72;;;3.00;;
70433;SDS011;57876;47.792;12.960;2023-10-19T11:22:16;6.57;;;2.70;;
70433;SDS011;57876;47.792;12.960;2023-10-19T11:24:41;7.20;;;2.70;;
70433;SDS011;57876;47.792;12.960;2023-10-19T11:27:05;6.90;;;2.63;;
70433;SDS011;57876;47.792;12.960;2023-10-19T11:29:31;6.37;;;2.70;;
70433;SDS011;57876;47.792;12.960;2023-10-19T11:31:56;6.43;;;2.70;;
70433;SDS011;57876;47.792;12.960;2023-10-19T11:34:22;6.13;;;2.90;;
70433;SDS011;57876;47.792;12.960;2023-10-19T11:36:46;6.82;;;2.83;;
70433;SDS011;57876;47.792;12.960;2023-10-19T11:39:12;6.67;;;3.00;;
70433;SDS011;57876;47.792;12.960;2023-10-19T11:41:36;6.28;;;2.70;;
70433;SDS011;57876;47.792;12.960;2023-10-19T11:44:00;6.80;;;3.00;;
70433;SDS011;57876;47.792;12.960;2023-10-19T11:46:25;6.20;;;3.03;;
70433;SDS011;57876;47.792;12.960;2023-10-19T11:48:49;6.13;;;2.60;;
70433;SDS011;57876;47.792;12.960;2023-10-19T11:51:14;7.38;;;3.03;;
70433;SDS011;57876;47.792;12.960;2023-10-19T11:53:39;6.40;;;2.70;;
70433;SDS011;57876;47.792;12.960;2023-10-19T11:56:04;6.32;;;2.80;;
70433;SDS011;57876;47.792;12.960;2023-10-19T11:58:37;6.20;;;2.60;;
70433;SDS011;57876;47.792;12.960;2023-10-19T12:01:04;6.30;;;2.67;;
70433;SDS011;57876;47.792;12.960;2023-10-19T12:03:32;6.60;;;2.80;;
70433;SDS011;57876;47.792;12.960;2023-10-19T12:05:59;6.85;;;3.00;;
70433;SDS011;57876;47.792;12.960;2023-10-19T12:08:23;5.77;;;2.47;;
70433;SDS011;57876;47.792;12.960;2023-10-19T12:10:48;7.03;;;2.77;;
70433;SDS011;57876;47.792;12.960;2023-10-19T12:13:14;7.03;;;2.67;;
70433;SDS011;57876;47.792;12.960;2023-10-19T12:15:40;6.55;;;2.83;;
70433;SDS011;57876;47.792;12.960;2023-10-19T12:18:05;7.53;;;2.97;;
70433;SDS011;57876;47.792;12.960;2023-10-19T12:20:32;5.87;;;2.47;;
70433;SDS011;57876;47.792;12.960;2023-10-19T12:22:56;6.78;;;2.92;;
70433;SDS011;57876;47.792;12.960;2023-10-19T12:25:22;6.57;;;2.80;;
70433;SDS011;57876;47.792;12.960;2023-10-19T12:27:53;6.18;;;2.60;;
70433;SDS011;57876;47.792;12.960;2023-10-19T12:30:17;6.30;;;2.70;;
70433;SDS011;57876;47.792;12.960;2023-10-19T12:32:44;7.88;;;2.90;;
70433;SDS011;57876;47.792;12.960;2023-10-19T12:35:09;7.10;;;2.80;;
70433;SDS011;57876;47.792;12.960;2023-10-19T12:37:36;5.70;;;2.40;;
70433;SDS011;57876;47.792;12.960;2023-10-19T12:40:03;6.60;;;2.80;;
70433;SDS011;57876;47.792;12.960;2023-10-19T12:42:48;6.05;;;2.47;;
70433;SDS011;57876;47.792;12.960;2023-10-19T12:45:15;6.78;;;2.50;;
70433;SDS011;57876;47.792;12.960;2023-10-19T12:47:39;5.93;;;2.50;;
70433;SDS011;57876;47.792;12.960;2023-10-19T12:50:04;6.70;;;2.60;;
70433;SDS011;57876;47.792;12.960;2023-10-19T12:52:30;7.32;;;2.40;;
70433;SDS011;57876;47.792;12.960;2023-10-19T12:54:59;5.93;;;2.45;;
70433;SDS011;57876;47.792;12.960;2023-10-19T12:57:28;5.90;;;2.50;;
70433;SDS011;57876;47.792;12.960;2023-10-19T12:59:52;5.97;;;2.20;;
70433;SDS011;57876;47.792;12.960;2023-10-19T13:02:17;6.27;;;2.30;;
70433;SDS011;57876;47.792;12.960;2023-10-19T13:04:42;6.72;;;2.50;;
70433;SDS011;57876;47.792;12.960;2023-10-19T13:07:06;6.77;;;2.50;;
70433;SDS011;57876;47.792;12.960;2023-10-19T13:09:31;6.30;;;2.50;;
70433;SDS011;57876;47.792;12.960;2023-10-19T13:11:58;6.07;;;2.50;;
70433;SDS011;57876;47.792;12.960;2023-10-19T13:14:23;5.53;;;2.30;;
70433;SDS011;57876;47.792;12.960;2023-10-19T13:16:47;6.63;;;2.40;;
70433;SDS011;57876;47.792;12.960;2023-10-19T13:19:15;6.00;;;2.30;;
70433;SDS011;57876;47.792;12.960;2023-10-19T13:21:44;6.28;;;2.70;;
70433;SDS011;57876;47.792;12.960;2023-10-19T13:24:09;5.83;;;2.37;;
70433;SDS011;57876;47.792;12.960;2023-10-19T13:26:33;6.00;;;2.53;;
70433;SDS011;57876;47.792;12.960;2023-10-19T13:28:58;5.90;;;2.30;;
70433;SDS011;57876;47.792;12.960;2023-10-19T13:31:23;5.60;;;2.67;;
70433;SDS011;57876;47.792;12.960;2023-10-19T13:33:50;6.90;;;2.33;;
70433;SDS011;57876;47.792;12.960;2023-10-19T13:36:14;6.15;;;2.40;;
70433;SDS011;57876;47.792;12.960;2023-10-19T13:38:40;6.13;;;2.40;;
70433;SDS011;57876;47.792;12.960;2023-10-19T13:41:05;5.93;;;2.15;;
70433;SDS011;57876;47.792;12.960;2023-10-19T13:43:36;5.70;;;2.13;;
70433;SDS011;57876;47.792;12.960;2023-10-19T13:46:00;5.40;;;2.13;;
70433;SDS011;57876;47.792;12.960;2023-10-19T13:48:25;6.10;;;2.10;;
70433;SDS011;57876;47.792;12.960;2023-10-19T13:50:50;5.40;;;2.10;;
70433;SDS011;57876;47.792;12.960;2023-10-19T13:53:17;6.07;;;2.25;;
70433;SDS011;57876;47.792;12.960;2023-10-19T13:55:41;5.95;;;2.30;;
70433;SDS011;57876;47.792;12.960;2023-10-19T13:58:07;5.57;;;2.20;;
70433;SDS011;57876;47.792;12.960;2023-10-19T14:00:31;6.80;;;2.47;;
70433;SDS011;57876;47.792;12.960;2023-10-19T14:02:59;15.25;;;2.63;;
70433;SDS011;57876;47.792;12.960;2023-10-19T14:05:25;5.35;;;1.90;;
70433;SDS011;57876;47.792;12.960;2023-10-19T14:07:49;5.70;;;2.03;;
70433;SDS011;57876;47.792;12.960;2023-10-19T14:10:15;5.53;;;2.10;;
70433;SDS011;57876;47.792;12.960;2023-10-19T14:12:40;5.93;;;2.00;;
70433;SDS011;57876;47.792;12.960;2023-10-19T14:15:17;6.13;;;2.22;;
70433;SDS011;57876;47.792;12.960;2023-10-19T14:17:43;5.63;;;2.00;;
70433;SDS011;57876;47.792;12.960;2023-10-19T14:20:10;5.85;;;2.22;;
70433;SDS011;57876;47.792;12.960;2023-10-19T14:22:48;5.47;;;2.00;;
70433;SDS011;57876;47.792;12.960;2023-10-19T14:25:13;5.57;;;2.10;;
70433;SDS011;57876;47.792;12.960;2023-10-19T14:27:42;5.53;;;1.88;;
70433;SDS011;57876;47.792;12.960;2023-10-19T14:30:11;6.07;;;2.38;;
70433;SDS011;57876;47.792;12.960;2023-10-19T14:32:37;5.68;;;2.00;;
70433;SDS011;57876;47.792;12.960;2023-10-19T14:35:06;5.50;;;1.87;;
70433;SDS011;57876;47.792;12.960;2023-10-19T14:37:33;5.20;;;1.88;;